Time;durP1;ratioP1;P1;durP2;ratioP2;P2;SDS_P1;SDS_P2;PMS_P1;PMS_P2;Temp;Humidity;BMP_temperature;BMP_pressure;BME280_temperature;BME280_humidity;BME280_pressure;Samples;Min_cycle;Max_cycle;Signal;HPM_P1;HPM_P2
2021/05/19 00:00:53;;;;;;;5.70;4.65;;;;;;;8.86;98.59;99435.09;5052028;28;20509;-74
2021/05/19 00:03:19;;;;;;;4.55;4.10;;;;;;;8.89;98.63;99440.31;5051376;28;20217;-73
2021/05/19 00:05:46;;;;;;;5.30;4.30;;;;;;;8.89;98.33;99439.44;5051888;28;20289;-73
2021/05/19 00:08:12;;;;;;;6.50;4.25;;;;;;;8.87;98.75;99444.03;5052112;28;20576;-73
2021/05/19 00:10:39;;;;;;;6.47;5.00;;;;;;;9.03;98.57;99441.38;5051964;28;20201;-74
2021/05/19 00:13:07;;;;;;;4.15;3.75;;;;;;;9.02;97.14;99439.63;5052073;28;20620;-75
2021/05/19 00:15:33;;;;;;;4.25;3.58;;;;;;;8.89;96.92;99440.31;5052136;28;20222;-73
2021/05/19 00:18:02;;;;;;;5.97;3.45;;;;;;;8.87;97.03;99436.84;5051200;28;20225;-74
2021/05/19 00:20:28;;;;;;;5.00;3.88;;;;;;;8.97;96.83;99432.69;5052292;28;20214;-74
2021/05/19 00:22:55;;;;;;;4.10;3.72;;;;;;;9.05;96.13;99440.34;5052033;28;20183;-75
2021/05/19 00:25:21;;;;;;;3.50;3.20;;;;;;;8.87;96.48;99433.31;5051774;28;20284;-74
2021/05/19 00:27:47;;;;;;;4.15;3.45;;;;;;;8.82;97.72;99435.34;5051149;28;20190;-75
2021/05/19 00:30:18;;;;;;;4.22;3.83;;;;;;;8.79;97.80;99433.69;5051493;28;20204;-73
2021/05/19 00:32:44;;;;;;;4.30;3.90;;;;;;;8.85;97.67;99438.75;5051838;28;20248;-74
2021/05/19 00:35:11;;;;;;;4.60;3.97;;;;;;;8.89;97.19;99436.78;5051670;28;20277;-74
2021/05/19 00:37:37;;;;;;;4.20;3.58;;;;;;;8.84;96.85;99441.50;5051766;28;20674;-74
2021/05/19 00:40:04;;;;;;;4.55;4.15;;;;;;;8.58;97.92;99440.22;5051192;28;20295;-75
2021/05/19 00:42:30;;;;;;;4.47;4.07;;;;;;;8.76;97.46;99441.91;5051687;28;20203;-74
2021/05/19 00:44:56;;;;;;;6.63;4.38;;;;;;;8.64;97.81;99442.53;5051592;28;20304;-76
2021/05/19 00:47:37;;;;;;;4.63;4.22;;;;;;;8.58;98.24;99437.53;5051662;28;20207;-75
2021/05/19 00:50:04;;;;;;;6.18;4.47;;;;;;;8.42;99.34;99441.00;5051471;28;20305;-76
2021/05/19 00:52:30;;;;;;;5.03;4.53;;;;;;;8.61;99.06;99429.31;5051727;28;20980;-75
2021/05/19 00:54:56;;;;;;;4.30;3.83;;;;;;;8.61;98.54;99434.66;5051162;28;20194;-77
2021/05/19 00:57:22;;;;;;;4.50;4.10;;;;;;;8.67;97.93;99428.97;5051218;28;20655;-74
2021/05/19 00:59:50;;;;;;;5.85;4.45;;;;;;;8.47;98.38;99430.03;5051320;28;20197;-74
2021/05/19 01:02:16;;;;;;;5.90;4.18;;;;;;;8.52;98.72;99436.91;5051266;28;20245;-73
2021/05/19 01:04:43;;;;;;;6.22;4.05;;;;;;;8.42;98.47;99426.72;5051535;28;20669;-74
2021/05/19 01:07:19;;;;;;;5.18;4.07;;;;;;;8.33;99.46;99436.94;5051083;28;20197;-73
2021/05/19 01:09:45;;;;;;;5.20;4.45;;;;;;;8.41;99.32;99427.66;5051373;28;20189;-75
2021/05/19 01:12:13;;;;;;;5.20;4.07;;;;;;;8.33;99.45;99425.34;5053844;28;20183;-74
2021/05/19 01:14:40;;;;;;;5.00;4.00;;;;;;;8.52;98.54;99419.91;5054400;28;20202;-75
2021/05/19 01:17:07;;;;;;;5.57;4.50;;;;;;;8.58;97.56;99429.47;5054439;28;20209;-73
2021/05/19 01:19:37;;;;;;;5.18;3.95;;;;;;;8.46;97.84;99428.31;5054663;28;20183;-75
2021/05/19 01:22:07;;;;;;;5.28;4.47;;;;;;;8.54;97.50;99437.66;5054354;28;20288;-74
2021/05/19 01:24:34;;;;;;;5.22;4.07;;;;;;;8.37;98.13;99437.66;5054381;28;20217;-75
2021/05/19 01:27:00;;;;;;;5.80;5.03;;;;;;;8.52;98.07;99430.66;5053858;28;20277;-72
2021/05/19 01:29:26;;;;;;;5.53;4.20;;;;;;;8.47;97.74;99430.88;5054604;28;20654;-75
2021/05/19 01:31:52;;;;;;;5.57;4.70;;;;;;;8.48;97.53;99435.31;5054489;28;20181;-74
2021/05/19 01:34:18;;;;;;;5.32;4.82;;;;;;;8.34;98.09;99424.38;5053958;28;20209;-75
2021/05/19 01:36:45;;;;;;;6.88;5.30;;;;;;;8.30;98.99;99426.38;5054183;28;20213;-75
2021/05/19 01:39:12;;;;;;;6.90;6.03;;;;;;;8.25;99.39;99432.91;5054188;28;20233;-74
2021/05/19 01:41:39;;;;;;;5.68;4.50;;;;;;;8.34;99.24;99438.69;5054272;28;20201;-74
2021/05/19 01:44:10;;;;;;;5.60;5.10;;;;;;;8.46;98.43;99431.00;5054285;28;20273;-73
2021/05/19 01:46:36;;;;;;;5.22;4.70;;;;;;;8.52;97.81;99430.66;5053859;28;20555;-74
2021/05/19 01:49:06;;;;;;;5.50;4.82;;;;;;;8.28;98.62;99435.47;5054198;28;20592;-75
2021/05/19 01:51:32;;;;;;;5.35;4.82;;;;;;;8.30;99.07;99439.78;5054226;28;20617;-73
2021/05/19 01:53:58;;;;;;;5.38;4.88;;;;;;;8.32;99.02;99437.91;5053772;28;20217;-74
2021/05/19 01:56:25;;;;;;;5.88;5.28;;;;;;;8.42;98.83;99443.69;5053455;28;20225;-72
2021/05/19 01:58:52;;;;;;;5.68;4.80;;;;;;;8.38;98.69;99438.53;5054041;28;20185;-73
2021/05/19 02:01:18;;;;;;;7.18;5.30;;;;;;;8.41;98.48;99441.06;5053662;28;20692;-76
2021/05/19 02:03:44;;;;;;;5.28;4.75;;;;;;;8.33;98.94;99442.31;5053825;28;20663;-74
2021/05/19 02:06:11;;;;;;;6.13;4.90;;;;;;;8.28;98.88;99440.81;5053506;28;20293;-74
2021/05/19 02:08:37;;;;;;;5.47;4.90;;;;;;;8.18;99.40;99440.41;5053551;28;20273;-74
2021/05/19 02:11:03;;;;;;;5.35;4.68;;;;;;;8.08;100.00;99444.50;5053675;28;20712;-75
2021/05/19 02:13:30;;;;;;;7.55;5.55;;;;;;;8.17;100.00;99438.69;5052917;28;20197;-75
2021/05/19 02:15:56;;;;;;;6.60;5.90;;;;;;;8.14;100.00;99441.53;5053529;28;20276;-74
2021/05/19 02:18:22;;;;;;;5.13;4.63;;;;;;;8.09;100.00;99436.38;5053721;28;20205;-74
2021/05/19 02:20:48;;;;;;;8.15;5.32;;;;;;;8.00;100.00;99444.88;5053629;28;20268;-75
2021/05/19 02:23:15;;;;;;;7.50;6.03;;;;;;;8.03;100.00;99444.75;5052892;28;20193;-73
2021/05/19 02:25:41;;;;;;;6.93;5.45;;;;;;;8.01;100.00;99448.44;5052997;28;20196;-74
2021/05/19 02:28:07;;;;;;;6.47;5.60;;;;;;;7.96;100.00;99451.38;5052975;28;20280;-74
2021/05/19 02:30:35;;;;;;;8.57;6.18;;;;;;;8.00;100.00;99447.56;5052984;28;20240;-78
2021/05/19 02:33:07;;;;;;;6.90;5.53;;;;;;;8.11;100.00;99452.38;5053237;28;20181;-77
2021/05/19 02:35:33;;;;;;;6.35;5.75;;;;;;;8.18;100.00;99450.25;5052761;28;20263;-78
2021/05/19 02:38:00;;;;;;;6.40;5.75;;;;;;;8.14;100.00;99453.13;5052630;28;20212;-77
2021/05/19 02:40:27;;;;;;;8.00;5.78;;;;;;;8.16;100.00;99455.69;5053185;28;20276;-77
2021/05/19 02:42:53;;;;;;;6.85;5.55;;;;;;;8.21;100.00;99455.47;5052718;28;20186;-77
2021/05/19 02:45:20;;;;;;;6.88;6.10;;;;;;;8.33;100.00;99452.19;5052954;28;20228;-77
2021/05/19 02:47:47;;;;;;;7.25;5.90;;;;;;;8.38;100.00;99447.44;5052748;28;20182;-77
2021/05/19 02:50:16;;;;;;;8.02;6.25;;;;;;;8.46;98.88;99447.94;5053173;28;20291;-77
2021/05/19 02:52:42;;;;;;;8.95;5.60;;;;;;;8.47;98.19;99452.34;5053026;28;20239;-77
2021/05/19 02:55:09;;;;;;;7.03;5.57;;;;;;;8.45;98.45;99448.88;5052844;28;20220;-77
2021/05/19 02:57:36;;;;;;;7.55;5.35;;;;;;;8.32;98.53;99450.41;5052562;28;20223;-78
2021/05/19 03:00:03;;;;;;;6.90;6.13;;;;;;;8.28;98.83;99452.41;5053026;28;20205;-77
2021/05/19 03:02:29;;;;;;;9.30;6.50;;;;;;;8.34;98.39;99454.78;5052623;28;20195;-78
2021/05/19 03:04:56;;;;;;;7.10;5.60;;;;;;;8.26;98.63;99451.63;5052285;28;20272;-77
2021/05/19 03:07:22;;;;;;;7.72;6.47;;;;;;;8.26;98.86;99445.41;5052660;28;20231;-77
2021/05/19 03:09:48;;;;;;;6.32;5.63;;;;;;;8.26;98.86;99459.66;5053008;28;20191;-77
2021/05/19 03:12:15;;;;;;;6.88;6.18;;;;;;;8.28;99.29;99462.28;5052902;28;20201;-77
2021/05/19 03:14:41;;;;;;;7.50;6.40;;;;;;;8.40;98.77;99464.34;5052745;28;20189;-78
2021/05/19 03:17:07;;;;;;;9.82;6.00;;;;;;;8.49;98.33;99463.88;5052858;28;20649;-77
2021/05/19 03:19:33;;;;;;;10.35;6.10;;;;;;;8.69;97.40;99472.72;5052584;28;20233;-77
2021/05/19 03:22:00;;;;;;;6.68;5.30;;;;;;;8.88;96.02;99476.16;5052542;28;20273;-77
2021/05/19 03:24:27;;;;;;;6.60;5.65;;;;;;;8.75;95.33;99462.53;5051993;28;20206;-77
2021/05/19 03:26:53;;;;;;;6.25;5.65;;;;;;;8.75;95.47;99461.63;5052573;28;20190;-77
2021/05/19 03:29:19;;;;;;;6.30;5.70;;;;;;;8.64;95.67;99466.69;5052875;28;20968;-77
2021/05/19 03:31:45;;;;;;;6.45;5.85;;;;;;;8.52;96.53;99465.53;5052608;28;21026;-77
2021/05/19 03:34:11;;;;;;;7.28;6.57;;;;;;;8.67;96.58;99469.25;5051776;28;20604;-76
2021/05/19 03:36:37;;;;;;;5.95;5.35;;;;;;;8.61;96.29;99470.41;5052022;28;20202;-77
2021/05/19 03:39:07;;;;;;;8.00;5.38;;;;;;;8.74;96.07;99467.97;5052034;28;20237;-77
2021/05/19 03:41:34;;;;;;;6.65;5.95;;;;;;;8.92;95.42;99467.00;5052613;28;20193;-78
2021/05/19 03:44:00;;;;;;;6.22;5.63;;;;;;;8.91;95.03;99469.75;5052522;28;20190;-77
2021/05/19 03:46:26;;;;;;;9.25;6.55;;;;;;;8.81;95.75;99469.38;5052285;28;20289;-77
2021/05/19 03:48:54;;;;;;;7.13;6.13;;;;;;;8.98;95.59;99477.41;5051797;28;20236;-76
2021/05/19 03:51:20;;;;;;;9.15;6.15;;;;;;;9.17;94.66;99482.66;5052184;28;20546;-77
2021/05/19 03:53:47;;;;;;;7.07;6.03;;;;;;;9.24;94.00;99483.19;5051967;28;20661;-78
2021/05/19 03:56:16;;;;;;;6.78;5.97;;;;;;;9.43;92.36;99480.38;5051990;28;20187;-77
2021/05/19 03:58:42;;;;;;;5.82;5.30;;;;;;;9.55;91.16;99481.50;5051704;28;20188;-77
2021/05/19 04:01:08;;;;;;;6.05;5.40;;;;;;;9.71;90.05;99477.00;5052160;28;20204;-79
2021/05/19 04:03:34;;;;;;;6.57;4.80;;;;;;;9.84;88.85;99473.63;5051695;28;20214;-78
2021/05/19 04:06:01;;;;;;;7.72;6.07;;;;;;;9.84;88.94;99477.19;5051924;28;20226;-77
2021/05/19 04:08:34;;;;;;;8.90;6.45;;;;;;;9.94;88.33;99482.88;5051857;28;20613;-78
2021/05/19 04:11:00;;;;;;;6.78;5.68;;;;;;;9.82;88.97;99479.94;5051903;28;20538;-77
2021/05/19 04:13:27;;;;;;;6.30;5.65;;;;;;;9.90;88.98;99478.63;5051276;28;20188;-79
2021/05/19 04:15:54;;;;;;;7.35;6.10;;;;;;;9.92;88.71;99484.78;5051464;28;20197;-77
2021/05/19 04:18:21;;;;;;;8.63;6.38;;;;;;;10.04;88.44;99484.13;5051366;28;20259;-77
2021/05/19 04:20:47;;;;;;;7.53;6.38;;;;;;;9.94;88.20;99485.56;5051892;28;20641;-75
2021/05/19 04:23:14;;;;;;;9.73;6.97;;;;;;;9.83;89.30;99491.56;5051925;28;20602;-77
2021/05/19 04:25:40;;;;;;;10.70;7.18;;;;;;;9.77;89.37;99492.78;5052054;28;20208;-76
2021/05/19 04:28:06;;;;;;;17.30;7.82;;;;;;;9.91;89.62;99499.22;5052049;28;20191;-76
2021/05/19 04:30:34;;;;;;;8.13;6.65;;;;;;;9.99;89.34;99488.88;5051769;28;20360;-77
2021/05/19 04:33:01;;;;;;;8.80;5.88;;;;;;;10.08;89.15;99498.22;5051988;28;20302;-77
2021/05/19 04:35:27;;;;;;;6.60;4.90;;;;;;;10.11;88.89;99490.88;5051840;28;20338;-77
2021/05/19 04:37:53;;;;;;;7.40;5.28;;;;;;;10.29;88.14;99494.34;5051381;28;20299;-77
2021/05/19 04:40:19;;;;;;;7.00;5.75;;;;;;;10.30;87.86;99495.19;5051012;28;20227;-77
2021/05/19 04:42:47;;;;;;;5.50;5.00;;;;;;;10.38;87.89;99487.56;5051802;28;20188;-77
2021/05/19 04:45:14;;;;;;;6.55;5.90;;;;;;;10.07;89.31;99500.06;5052809;28;20253;-77
2021/05/19 04:47:41;;;;;;;9.75;6.55;;;;;;;10.21;89.35;99500.13;5055206;28;20646;-77
2021/05/19 04:50:09;;;;;;;7.38;5.50;;;;;;;9.93;90.26;99497.31;5054278;28;20227;-76
2021/05/19 04:52:36;;;;;;;7.97;5.97;;;;;;;10.34;89.10;99500.31;5055099;28;20231;-74
2021/05/19 04:55:05;;;;;;;7.07;6.38;;;;;;;10.49;88.21;99500.34;5054902;28;20210;-76
2021/05/19 04:57:31;;;;;;;9.75;6.22;;;;;;;10.22;88.73;99503.66;5055641;28;20254;-77
2021/05/19 04:59:57;;;;;;;10.43;7.05;;;;;;;9.92;90.13;99512.56;5054839;28;20252;-76
2021/05/19 05:02:23;;;;;;;5.78;5.25;;;;;;;10.17;90.03;99511.16;5055499;28;20198;-77
2021/05/19 05:04:52;;;;;;;8.60;5.90;;;;;;;10.28;88.88;99518.59;5054998;28;20630;-75
2021/05/19 05:07:18;;;;;;;7.13;6.15;;;;;;;10.19;89.45;99517.31;5054910;28;20194;-78
2021/05/19 05:09:47;;;;;;;12.48;6.95;;;;;;;10.31;89.76;99513.06;5054957;28;20246;-78
2021/05/19 05:12:13;;;;;;;10.93;8.43;;;;;;;10.69;88.64;99509.94;5055166;28;20227;-78
2021/05/19 05:14:40;;;;;;;9.52;8.15;;;;;;;10.54;89.03;99509.91;5055085;28;20224;-77
2021/05/19 05:17:06;;;;;;;12.43;10.68;;;;;;;10.56;89.45;99517.88;5054633;28;20248;-77
2021/05/19 05:19:32;;;;;;;11.60;9.15;;;;;;;10.50;89.40;99518.25;5054194;28;20208;-76
2021/05/19 05:22:00;;;;;;;12.95;11.52;;;;;;;10.25;91.23;99516.09;5054121;28;20226;-77
2021/05/19 05:24:26;;;;;;;12.15;9.95;;;;;;;10.47;91.08;99522.00;5054405;28;20195;-76
2021/05/19 05:26:52;;;;;;;14.35;11.02;;;;;;;10.48;91.12;99518.34;5054232;28;20200;-77
2021/05/19 05:29:18;;;;;;;13.85;10.40;;;;;;;10.68;89.90;99517.16;5054243;28;20275;-75
2021/05/19 05:31:44;;;;;;;14.20;10.68;;;;;;;10.45;90.66;99523.91;5054411;28;20192;-75
2021/05/19 05:34:10;;;;;;;14.10;10.65;;;;;;;10.42;90.17;99522.28;5054256;28;20201;-76
2021/05/19 05:36:36;;;;;;;12.57;11.25;;;;;;;10.57;90.33;99519.63;5054257;28;20219;-76
2021/05/19 05:39:04;;;;;;;14.35;11.30;;;;;;;10.36;90.87;99521.75;5053508;28;20302;-76
2021/05/19 05:41:30;;;;;;;18.48;14.68;;;;;;;10.71;89.56;99521.50;5053979;28;20246;-77
2021/05/19 05:43:57;;;;;;;18.55;12.88;;;;;;;10.69;87.71;99521.56;5054054;28;20223;-76
2021/05/19 05:46:23;;;;;;;19.55;12.63;;;;;;;10.86;86.35;99528.66;5053952;28;20665;-76
2021/05/19 05:48:49;;;;;;;18.05;14.30;;;;;;;10.88;86.39;99533.94;5053958;28;20268;-76
2021/05/19 05:51:15;;;;;;;16.08;13.93;;;;;;;10.85;86.93;99534.97;5053690;28;20271;-75
2021/05/19 05:53:42;;;;;;;15.52;13.30;;;;;;;10.97;87.19;99536.94;5054033;28;20279;-76
2021/05/19 05:56:09;;;;;;;21.55;16.58;;;;;;;11.26;85.59;99540.56;5053723;28;20201;-76
2021/05/19 05:58:35;;;;;;;18.90;15.25;;;;;;;11.27;84.92;99544.97;5053099;28;20201;-76
2021/05/19 06:01:01;;;;;;;21.83;14.63;;;;;;;11.35;83.76;99549.00;5053907;28;20704;-77
2021/05/19 06:03:27;;;;;;;18.75;14.60;;;;;;;11.21;83.21;99553.44;5053474;28;20296;-76
2021/05/19 06:05:53;;;;;;;19.13;15.35;;;;;;;10.95;84.65;99546.94;5053730;28;20199;-76
2021/05/19 06:08:19;;;;;;;15.88;13.85;;;;;;;11.20;84.33;99556.25;5053353;28;20303;-76
2021/05/19 06:10:45;;;;;;;16.52;12.98;;;;;;;11.27;83.43;99553.06;5053339;28;20190;-77
2021/05/19 06:13:12;;;;;;;21.88;15.00;;;;;;;11.17;83.82;99557.31;5053611;28;20201;-75
2021/05/19 06:15:38;;;;;;;19.17;14.77;;;;;;;11.29;82.91;99550.28;5053544;28;20251;-76
2021/05/19 06:18:05;;;;;;;17.30;14.95;;;;;;;11.58;81.84;99555.69;5053327;28;20205;-77
2021/05/19 06:20:31;;;;;;;17.92;15.20;;;;;;;11.64;81.03;99557.97;5053538;28;20185;-77
2021/05/19 06:22:57;;;;;;;15.38;13.73;;;;;;;11.26;81.82;99559.41;5053604;28;20535;-77
2021/05/19 06:25:23;;;;;;;15.82;13.57;;;;;;;11.59;80.94;99560.09;5052932;28;20608;-76
2021/05/19 06:27:50;;;;;;;14.82;12.65;;;;;;;11.72;79.33;99558.38;5053745;28;20272;-77
2021/05/19 06:30:17;;;;;;;16.10;13.45;;;;;;;12.29;77.01;99565.53;5053335;28;20214;-77
2021/05/19 06:32:44;;;;;;;14.43;11.93;;;;;;;12.37;76.08;99559.59;5053374;28;20193;-75
2021/05/19 06:35:11;;;;;;;12.80;11.50;;;;;;;12.36;75.20;99555.19;5053397;28;20185;-75
2021/05/19 06:37:37;;;;;;;14.40;12.90;;;;;;;11.89;77.45;99568.09;5053161;28;20264;-75
2021/05/19 06:40:05;;;;;;;12.55;11.02;;;;;;;11.77;77.38;99569.72;5052926;28;21046;-75
2021/05/19 06:42:31;;;;;;;12.65;11.35;;;;;;;11.40;78.72;99572.03;5053185;28;20224;-76
2021/05/19 06:44:57;;;;;;;13.20;9.77;;;;;;;11.32;79.51;99568.94;5052920;28;20312;-75
2021/05/19 06:47:25;;;;;;;12.20;9.73;;;;;;;11.30;79.11;99568.16;5052665;28;20182;-74
2021/05/19 06:49:51;;;;;;;13.98;10.27;;;;;;;11.56;78.37;99566.56;5052800;28;20193;-76
2021/05/19 06:52:18;;;;;;;12.00;10.20;;;;;;;12.07;76.79;99575.03;5052637;28;20285;-76
2021/05/19 06:54:44;;;;;;;10.57;9.52;;;;;;;12.60;74.45;99574.31;5052990;28;20209;-76
2021/05/19 06:57:10;;;;;;;11.68;10.32;;;;;;;12.64;72.95;99567.69;5052653;28;20201;-75
2021/05/19 06:59:36;;;;;;;14.82;9.57;;;;;;;12.87;72.14;99579.69;5052608;28;20584;-74
2021/05/19 07:02:02;;;;;;;13.05;11.73;;;;;;;12.75;72.62;99573.25;5052804;28;20603;-75
2021/05/19 07:04:29;;;;;;;11.50;10.30;;;;;;;13.10;71.21;99570.84;5052413;28;20182;-74
2021/05/19 07:06:58;;;;;;;16.30;13.45;;;;;;;13.31;69.87;99573.94;5052643;28;20345;-73
2021/05/19 07:09:25;;;;;;;14.55;9.93;;;;;;;13.39;69.53;99578.81;5051239;28;20642;-75
2021/05/19 07:11:52;;;;;;;13.57;9.90;;;;;;;13.43;69.42;99579.44;5052154;28;20209;-75
2021/05/19 07:14:18;;;;;;;14.32;10.82;;;;;;;13.14;70.45;99583.19;5051903;28;20220;-75
2021/05/19 07:16:50;;;;;;;12.07;9.50;;;;;;;13.05;70.73;99572.16;5052048;28;20185;-75
2021/05/19 07:19:16;;;;;;;13.15;9.45;;;;;;;12.67;72.43;99581.88;5052491;28;20197;-74
2021/05/19 07:21:43;;;;;;;13.80;8.85;;;;;;;12.85;72.51;99574.38;5052587;28;20354;-75
2021/05/19 07:24:11;;;;;;;8.63;7.22;;;;;;;12.93;71.21;99574.72;5052182;28;20239;-76
2021/05/19 07:26:38;;;;;;;10.52;7.32;;;;;;;12.96;71.11;99579.06;5052066;28;20216;-76
2021/05/19 07:29:04;;;;;;;6.05;5.45;;;;;;;13.01;70.64;99582.31;5052413;28;20236;-75
2021/05/19 07:31:31;;;;;;;8.35;7.55;;;;;;;13.60;68.69;99579.13;5052260;28;20205;-74
2021/05/19 07:33:57;;;;;;;7.05;4.75;;;;;;;13.88;66.91;99582.56;5052117;28;20181;-76
2021/05/19 07:36:24;;;;;;;9.55;5.53;;;;;;;13.83;67.45;99582.91;5052296;28;20227;-75
2021/05/19 07:38:51;;;;;;;6.43;5.10;;;;;;;13.64;68.03;99585.22;5051141;28;20316;-75
2021/05/19 07:41:17;;;;;;;6.93;4.88;;;;;;;13.65;68.47;99581.50;5051961;28;20269;-74
2021/05/19 07:43:43;;;;;;;5.90;4.63;;;;;;;13.80;67.68;99583.13;5052024;28;20680;-74
2021/05/19 07:46:09;;;;;;;6.00;4.22;;;;;;;14.11;66.10;99589.00;5052007;28;20210;-75
2021/05/19 07:48:35;;;;;;;8.60;4.10;;;;;;;13.89;66.86;99579.75;5051859;28;20350;-75
2021/05/19 07:51:01;;;;;;;5.53;4.00;;;;;;;13.91;66.80;99580.50;5051864;28;20639;-74
2021/05/19 07:53:27;;;;;;;7.38;5.10;;;;;;;14.39;65.98;99579.75;5051901;28;20186;-74
2021/05/19 07:55:58;;;;;;;4.68;4.05;;;;;;;14.22;65.71;99580.97;5051945;28;20623;-76
2021/05/19 07:58:30;;;;;;;8.32;4.45;;;;;;;13.91;66.72;99577.81;5051549;28;20567;-76
2021/05/19 08:01:07;;;;;;;10.13;5.70;;;;;;;14.72;64.64;99579.09;5051998;28;20202;-76
2021/05/19 08:03:34;;;;;;;4.72;4.07;;;;;;;15.02;61.99;99580.44;5051874;28;20189;-75
2021/05/19 08:06:00;;;;;;;8.10;4.60;;;;;;;15.05;61.68;99577.50;5051593;28;20198;-75
2021/05/19 08:08:26;;;;;;;6.05;4.32;;;;;;;15.21;61.74;99575.31;5051406;28;20192;-75
2021/05/19 08:10:53;;;;;;;5.05;4.55;;;;;;;15.12;62.11;99567.03;5051719;28;20640;-76
2021/05/19 08:13:20;;;;;;;5.90;4.75;;;;;;;15.10;62.53;99571.72;5051633;28;20636;-76
2021/05/19 08:15:46;;;;;;;7.15;4.40;;;;;;;15.38;61.34;99576.72;5051721;28;20547;-74
2021/05/19 08:18:12;;;;;;;7.70;5.72;;;;;;;15.76;60.29;99570.16;5051212;28;20314;-75
2021/05/19 08:20:40;;;;;;;6.35;4.90;;;;;;;15.93;60.04;99576.91;5053198;28;20290;-73
2021/05/19 08:23:06;;;;;;;10.70;4.95;;;;;;;16.07;58.48;99564.94;5055403;28;20243;-75
2021/05/19 08:25:33;;;;;;;7.35;3.50;;;;;;;16.31;56.98;99572.06;5055818;28;20670;-76
2021/05/19 08:27:59;;;;;;;4.60;4.20;;;;;;;16.92;55.27;99557.94;5055762;28;20225;-75
2021/05/19 08:30:27;;;;;;;6.40;4.20;;;;;;;17.02;54.40;99551.56;5055678;28;20272;-76
2021/05/19 08:32:54;;;;;;;10.38;4.07;;;;;;;17.50;52.26;99558.34;5055105;28;20197;-74
2021/05/19 08:35:20;;;;;;;7.57;5.35;;;;;;;17.75;51.49;99550.72;5055091;28;20196;-75
2021/05/19 08:37:46;;;;;;;11.65;4.93;;;;;;;18.17;51.11;99550.66;5054808;28;20245;-75
2021/05/19 08:40:13;;;;;;;8.65;4.40;;;;;;;18.43;49.98;99556.44;5055084;28;20317;-74
2021/05/19 08:42:39;;;;;;;4.60;4.10;;;;;;;18.89;49.11;99542.16;5054957;28;20192;-74
2021/05/19 08:45:09;;;;;;;11.57;4.03;;;;;;;18.63;48.41;99546.41;5055201;28;20263;-74
2021/05/19 08:47:36;;;;;;;5.97;3.80;;;;;;;18.30;49.21;99543.94;5055067;28;20281;-74
2021/05/19 08:50:03;;;;;;;5.63;3.47;;;;;;;18.04;49.96;99549.00;5054742;28;20273;-75
2021/05/19 08:52:29;;;;;;;8.77;7.25;;;;;;;18.19;49.57;99544.06;5055188;28;20191;-74
2021/05/19 08:54:56;;;;;;;6.65;4.70;;;;;;;17.84;50.58;99539.03;5055142;28;20714;-74
2021/05/19 08:57:22;;;;;;;4.63;3.08;;;;;;;17.42;51.30;99539.09;5055008;28;20225;-74
2021/05/19 08:59:49;;;;;;;4.35;3.30;;;;;;;16.77;53.59;99531.03;5054764;28;20297;-74
2021/05/19 09:02:16;;;;;;;6.90;3.58;;;;;;;16.74;53.22;99528.56;5054437;28;20266;-73
2021/05/19 09:04:44;;;;;;;5.15;3.08;;;;;;;16.20;52.06;99529.47;5054968;28;20642;-74
2021/05/19 09:07:18;;;;;;;8.50;3.35;;;;;;;16.14;54.61;99529.97;5055070;28;20221;-74
2021/05/19 09:09:44;;;;;;;4.82;4.20;;;;;;;16.60;53.66;99521.59;5055018;28;20623;-73
2021/05/19 09:12:11;;;;;;;5.50;2.65;;;;;;;16.71;53.12;99522.53;5054645;28;20212;-73
2021/05/19 09:14:39;;;;;;;5.60;2.85;;;;;;;16.90;52.83;99524.59;5054580;28;20208;-75
2021/05/19 09:17:23;;;;;;;4.57;2.90;;;;;;;17.28;51.01;99515.81;5054363;28;20193;-75
2021/05/19 09:19:52;;;;;;;5.20;2.80;;;;;;;17.63;48.56;99515.41;5054635;28;20212;-74
2021/05/19 09:22:22;;;;;;;6.53;3.35;;;;;;;17.89;47.99;99510.41;5054028;28;20239;-75
2021/05/19 09:24:49;;;;;;;6.97;2.72;;;;;;;17.32;49.28;99506.41;5054112;28;20188;-74
2021/05/19 09:27:16;;;;;;;4.13;2.33;;;;;;;16.49;51.66;99505.31;5054487;28;20593;-73
2021/05/19 09:29:46;;;;;;;6.30;3.22;;;;;;;16.49;51.18;99496.31;5054639;28;20186;-76
2021/05/19 09:32:14;;;;;;;3.78;2.25;;;;;;;16.34;51.65;99504.75;5053298;28;20269;-78
2021/05/19 09:34:42;;;;;;;10.63;2.28;;;;;;;16.36;52.28;99496.47;5054444;28;20693;-76
2021/05/19 09:37:23;;;;;;;4.90;2.35;;;;;;;16.59;51.44;99494.53;5054146;28;20229;-74
2021/05/19 09:39:52;;;;;;;4.03;2.63;;;;;;;16.66;51.47;99482.13;5053964;28;20229;-74
2021/05/19 09:42:19;;;;;;;3.05;2.25;;;;;;;16.37;51.99;99487.31;5053795;28;20208;-76
2021/05/19 09:44:47;;;;;;;3.00;2.50;;;;;;;16.17;52.86;99480.84;5054060;28;20617;-74
2021/05/19 09:47:34;;;;;;;5.85;2.33;;;;;;;16.20;53.38;99475.16;5053907;28;20196;-74
2021/05/19 09:50:01;;;;;;;3.65;2.60;;;;;;;16.24;53.67;99474.78;5053827;28;20268;-76
2021/05/19 09:52:27;;;;;;;3.80;2.80;;;;;;;16.34;53.65;99472.13;5053627;28;20240;-75
2021/05/19 09:55:02;;;;;;;4.00;3.60;;;;;;;16.59;52.53;99470.06;5053830;28;20188;-73
2021/05/19 09:57:40;;;;;;;7.00;3.30;;;;;;;17.07;51.61;99464.13;5053603;28;20236;-74
2021/05/19 10:00:08;;;;;;;6.97;2.83;;;;;;;17.45;50.32;99476.22;5053643;28;20200;-75
2021/05/19 10:02:35;;;;;;;2.85;1.70;;;;;;;16.65;50.14;99458.69;5053666;28;20665;-73
2021/05/19 10:05:10;;;;;;;3.67;2.20;;;;;;;16.51;49.72;99456.25;5053475;28;20190;-75
2021/05/19 10:07:36;;;;;;;4.38;1.58;;;;;;;16.81;49.27;99459.09;5053432;28;20193;-74
2021/05/19 10:10:03;;;;;;;2.47;1.50;;;;;;;16.84;47.99;99453.38;5053405;28;20213;-75
2021/05/19 10:12:31;;;;;;;4.18;1.85;;;;;;;16.89;47.74;99447.56;5053191;28;20201;-75
2021/05/19 10:15:01;;;;;;;4.63;1.60;;;;;;;17.23;46.68;99450.03;5053655;28;20196;-74
2021/05/19 10:17:28;;;;;;;6.03;1.95;;;;;;;17.36;47.11;99447.97;5053112;28;20716;-74
2021/05/19 10:19:56;;;;;;;2.50;1.88;;;;;;;17.04;45.56;99442.66;5053306;28;20284;-75
2021/05/19 10:22:25;;;;;;;1.88;1.75;;;;;;;17.12;45.74;99445.56;5053466;28;20541;-74
2021/05/19 10:24:54;;;;;;;3.78;2.13;;;;;;;17.41;45.44;99443.00;5052789;28;20207;-73
2021/05/19 10:27:21;;;;;;;1.65;1.42;;;;;;;17.96;43.77;99445.34;5053529;28;20264;-75
2021/05/19 10:29:56;;;;;;;1.85;1.27;;;;;;;18.35;43.00;99445.41;5053108;28;20630;-75
2021/05/19 10:32:33;;;;;;;3.00;1.88;;;;;;;18.29;43.32;99445.94;5053086;28;20246;-75
2021/05/19 10:35:01;;;;;;;2.78;1.63;;;;;;;18.85;42.60;99444.41;5052930;28;20580;-75
2021/05/19 10:37:47;;;;;;;3.00;1.40;;;;;;;18.46;41.96;99433.50;5052964;28;20205;-76
2021/05/19 10:40:30;;;;;;;1.55;1.30;;;;;;;18.18;42.77;99425.16;5052673;28;20237;-75
2021/05/19 10:43:03;;;;;;;2.78;1.40;;;;;;;18.33;42.48;99428.31;5052327;28;20280;-75
2021/05/19 10:45:30;;;;;;;4.50;1.40;;;;;;;17.75;43.62;99434.53;5052899;28;20178;-75
2021/05/19 10:47:56;;;;;;;3.15;1.70;;;;;;;17.26;44.73;99431.59;5052852;28;20197;-75
2021/05/19 10:50:34;;;;;;;2.38;1.20;;;;;;;17.24;45.14;99447.19;5052462;28;20186;-76
2021/05/19 10:58:47;;;;;;;3.00;2.10;;;;;;;11.61;84.51;99502.41;5052612;28;20876;-75
2021/05/19 11:01:14;;;;;;;10.38;3.40;;;;;;;10.78;100.00;99517.47;5052788;28;20216;-76
2021/05/19 11:03:42;;;;;;;4.10;3.13;;;;;;;10.09;100.00;99538.50;5052595;28;20674;-76
2021/05/19 11:06:13;;;;;;;10.77;4.00;;;;;;;10.02;100.00;99550.56;5052082;28;20261;-75
2021/05/19 11:08:41;;;;;;;7.38;3.05;;;;;;;9.38;100.00;99550.50;5052289;28;20588;-74
2021/05/19 11:11:27;;;;;;;6.22;3.55;;;;;;;9.43;100.00;99541.28;5052174;28;20200;-76
2021/05/19 11:14:02;;;;;;;7.43;4.00;;;;;;;9.46;100.00;99544.69;5052561;28;20237;-74
2021/05/19 11:17:09;;;;;;;9.13;4.97;;;;;;;9.44;100.00;99549.28;5052037;28;20587;-74
2021/05/19 11:19:37;;;;;;;7.93;4.78;;;;;;;9.74;100.00;99551.25;5051920;28;20271;-75
2021/05/19 11:22:14;;;;;;;6.72;5.00;;;;;;;9.91;100.00;99553.00;5052065;28;20638;-76
2021/05/19 11:24:53;;;;;;;7.75;4.53;;;;;;;10.01;100.00;99554.19;5052129;28;20182;-74
2021/05/19 11:27:20;;;;;;;10.50;5.78;;;;;;;10.27;100.00;99555.44;5052167;28;20219;-74
2021/05/19 11:29:47;;;;;;;5.95;5.10;;;;;;;10.26;100.00;99550.97;5051579;28;20205;-75
2021/05/19 11:32:20;;;;;;;7.07;6.20;;;;;;;10.29;100.00;99547.28;5051931;28;20279;-75
2021/05/19 11:34:47;;;;;;;11.48;7.60;;;;;;;10.52;100.00;99554.03;5051926;28;20228;-74
2021/05/19 11:37:15;;;;;;;8.38;5.80;;;;;;;10.83;100.00;99544.97;5051808;28;20259;-76
2021/05/19 11:39:45;;;;;;;9.88;8.10;;;;;;;10.97;100.00;99542.34;5051678;28;20259;-76